Time;durP1;ratioP1;P1;durP2;ratioP2;P2;SDS_P1;SDS_P2;PMS_P1;PMS_P2;Temp;Humidity;BMP_temperature;BMP_pressure;BME280_temperature;BME280_humidity;BME280_pressure;Samples;Min_cycle;Max_cycle;Signal;HPM_P1;HPM_P2
2022/08/29 00:02:08;;;;;;;8.32;2.78;;;16.70;99.90;;;;;;5003945;28;20116;-74
2022/08/29 00:04:34;;;;;;;10.30;2.80;;;16.70;99.90;;;;;;5041522;28;20128;-74
2022/08/29 00:07:00;;;;;;;10.50;3.10;;;16.70;99.90;;;;;;4987914;28;20503;-74
2022/08/29 00:09:26;;;;;;;8.70;2.97;;;16.70;99.90;;;;;;5012099;28;20120;-75
2022/08/29 00:11:52;;;;;;;10.20;2.90;;;16.70;99.90;;;;;;5014210;28;20045;-74
2022/08/29 00:14:17;;;;;;;10.05;2.97;;;16.70;99.90;;;;;;5031011;28;20114;-74
2022/08/29 00:16:43;;;;;;;11.05;2.85;;;16.70;99.90;;;;;;5025200;28;20041;-74
2022/08/29 00:19:09;;;;;;;9.68;2.80;;;16.70;99.90;;;;;;5019629;28;20048;-74
2022/08/29 00:21:35;;;;;;;10.27;2.90;;;16.70;99.90;;;;;;5009861;28;20061;-74
2022/08/29 00:24:01;;;;;;;8.00;2.60;;;16.70;99.90;;;;;;5010110;28;20208;-75
2022/08/29 00:26:26;;;;;;;9.52;2.90;;;16.70;99.90;;;;;;5016733;28;20033;-74
2022/08/29 00:28:52;;;;;;;10.57;2.97;;;16.70;99.90;;;;;;5042666;28;20048;-74
2022/08/29 00:31:18;;;;;;;10.00;2.80;;;16.70;99.90;;;;;;5017805;28;20045;-73
2022/08/29 00:33:44;;;;;;;11.73;2.92;;;16.70;99.90;;;;;;5013160;28;20036;-74
2022/08/29 00:36:10;;;;;;;13.15;3.10;;;16.70;99.90;;;;;;5029599;28;20036;-74
2022/08/29 00:38:36;;;;;;;10.02;2.90;;;16.70;99.90;;;;;;5026924;28;20495;-74
2022/08/29 00:41:03;;;;;;;9.98;3.15;;;16.70;99.90;;;;;;5029529;28;20045;-74
2022/08/29 00:43:33;;;;;;;9.93;2.50;;;16.70;99.90;;;;;;5048772;28;20056;-74
2022/08/29 00:46:21;;;;;;;11.52;2.47;;;16.70;99.90;;;;;;5029045;28;20553;-74
2022/08/29 00:48:59;;;;;;;10.45;2.58;;;16.70;99.90;;;;;;5026223;28;20080;-74
2022/08/29 00:51:25;;;;;;;8.10;2.40;;;16.60;99.90;;;;;;5025636;28;20037;-74
2022/08/29 00:54:00;;;;;;;8.90;2.80;;;16.60;99.90;;;;;;5048533;28;20047;-74
2022/08/29 00:56:28;;;;;;;9.13;2.40;;;16.60;99.90;;;;;;5046910;28;20033;-75
2022/08/29 00:59:02;;;;;;;10.40;2.50;;;16.60;99.90;;;;;;5027665;28;20120;-75
2022/08/29 01:01:28;;;;;;;8.52;2.13;;;16.60;99.90;;;;;;5046434;28;20068;-74
2022/08/29 01:03:55;;;;;;;9.07;2.10;;;16.60;99.90;;;;;;5047061;28;20103;-75
2022/08/29 01:06:21;;;;;;;8.75;2.40;;;16.60;99.90;;;;;;5012639;28;20530;-74
2022/08/29 01:08:47;;;;;;;13.07;2.40;;;16.60;99.90;;;;;;5040887;28;20327;-75
2022/08/29 01:14:02;;;;;;;9.75;2.40;;;16.60;99.90;;;;;;5027970;28;20276;-74
2022/08/29 01:16:29;;;;;;;9.88;2.42;;;16.60;99.90;;;;;;5046838;28;20487;-77
2022/08/29 01:19:07;;;;;;;7.80;1.90;;;16.60;99.90;;;;;;5018622;28;20041;-74
2022/08/29 01:22:20;;;;;;;7.60;1.98;;;16.60;99.90;;;;;;5027370;28;20094;-74
2022/08/29 01:24:51;;;;;;;8.80;2.17;;;16.60;99.90;;;;;;5040584;28;20110;-75
2022/08/29 01:27:23;;;;;;;10.50;2.15;;;16.60;99.90;;;;;;5013191;28;20049;-75
2022/08/29 01:29:49;;;;;;;;;;;16.60;99.90;;;;;;5046986;28;20033;-73
2022/08/29 01:32:15;;;;;;;9.55;2.50;;;16.60;99.90;;;;;;5012243;28;19924;-74
2022/08/29 01:34:42;;;;;;;8.55;2.30;;;16.60;99.90;;;;;;5043465;28;20033;-74
2022/08/29 01:37:10;;;;;;;9.60;2.30;;;16.70;99.90;;;;;;5046043;28;20037;-74
2022/08/29 01:39:39;;;;;;;12.57;2.80;;;16.70;99.90;;;;;;5048011;28;20048;-75
2022/08/29 01:42:20;;;;;;;16.85;3.25;;;16.70;99.90;;;;;;5011286;28;20036;-74
2022/08/29 01:44:51;;;;;;;8.35;2.42;;;16.70;99.90;;;;;;5045659;28;20056;-75
2022/08/29 01:47:18;;;;;;;10.32;2.20;;;16.70;99.90;;;;;;5029219;28;20037;-74
2022/08/29 01:49:44;;;;;;;8.35;2.10;;;16.70;99.90;;;;;;5045657;28;20187;-74
2022/08/29 01:52:11;;;;;;;11.48;2.80;;;15.90;99.90;;;;;;5009843;28;20551;-74
2022/08/29 01:54:40;;;;;;;10.05;2.15;;;16.70;99.90;;;;;;5028852;28;20172;-74
2022/08/29 01:57:06;;;;;;;11.98;2.47;;;16.70;99.90;;;;;;5028771;28;20052;-74
2022/08/29 01:59:32;;;;;;;9.60;2.35;;;16.70;99.90;;;;;;5049645;28;20044;-75
2022/08/29 02:02:09;;;;;;;9.85;2.50;;;16.70;99.90;;;;;;5031653;28;20045;-75
2022/08/29 02:04:35;;;;;;;9.82;2.38;;;16.70;99.90;;;;;;5029692;28;20503;-74
2022/08/29 02:07:01;;;;;;;12.98;2.58;;;16.70;99.90;;;;;;5017417;28;20052;-75
2022/08/29 02:09:27;;;;;;;12.48;2.35;;;16.70;99.90;;;;;;5049394;28;20981;-74
2022/08/29 02:11:56;;;;;;;16.30;2.70;;;16.70;99.90;;;;;;5048098;28;20045;-75
2022/08/29 02:14:23;;;;;;;9.18;2.33;;;16.70;99.90;;;;;;5031842;28;20450;-75
2022/08/29 02:16:50;;;;;;;9.60;2.45;;;16.80;99.90;;;;;;5048337;28;20116;-74
2022/08/29 02:19:16;;;;;;;11.45;2.30;;;16.70;99.90;;;;;;5061862;28;20173;-73
2022/08/29 02:21:43;;;;;;;11.15;2.55;;;16.70;99.90;;;;;;5016750;28;20040;-74
2022/08/29 02:24:09;;;;;;;12.55;2.50;;;16.70;99.90;;;;;;5015827;28;20040;-73
2022/08/29 02:26:35;;;;;;;11.48;2.70;;;16.70;99.90;;;;;;5030578;28;20040;-74
2022/08/29 02:29:01;;;;;;;7.93;2.20;;;16.70;99.90;;;;;;5030195;28;20442;-74
2022/08/29 02:31:28;;;;;;;10.88;2.45;;;16.70;99.90;;;;;;5016738;28;20068;-74
2022/08/29 02:33:55;;;;;;;10.35;2.67;;;16.70;99.90;;;;;;5017795;28;20040;-75
2022/08/29 02:36:21;;;;;;;9.80;2.60;;;17.90;99.90;;;;;;5031380;28;20557;-74
2022/08/29 02:38:47;;;;;;;10.32;2.40;;;16.70;99.90;;;;;;5017262;28;20075;-74
2022/08/29 02:41:14;;;;;;;12.57;2.38;;;16.70;99.90;;;;;;5014462;28;20052;-74
2022/08/29 02:43:40;;;;;;;14.18;2.60;;;16.70;99.90;;;;;;5047481;28;20065;-75
2022/08/29 02:46:06;;;;;;;8.75;2.53;;;16.70;99.90;;;;;;5014952;28;20461;-74
2022/08/29 02:48:32;;;;;;;11.02;2.97;;;16.70;99.90;;;;;;5015631;28;20586;-74
2022/08/29 02:50:58;;;;;;;8.40;2.22;;;16.70;99.90;;;;;;4998400;28;20119;-74
2022/08/29 02:53:29;;;;;;;9.75;2.58;;;16.70;99.90;;;;;;5038839;28;20507;-74
2022/08/29 02:55:55;;;;;;;8.80;2.40;;;16.70;99.90;;;;;;5017128;28;20487;-74
2022/08/29 02:58:23;;;;;;;10.73;2.60;;;16.70;99.90;;;;;;5030841;28;20047;-74
2022/08/29 03:00:49;;;;;;;10.90;2.60;;;16.70;99.90;;;;;;5014120;28;20404;-74
2022/08/29 03:03:15;;;;;;;9.45;2.42;;;16.70;99.90;;;;;;5032793;28;20052;-74
2022/08/29 03:05:41;;;;;;;9.13;2.70;;;16.70;99.90;;;;;;5030527;28;20037;-74
2022/08/29 03:08:10;;;;;;;12.52;2.40;;;16.70;99.90;;;;;;5031148;28;20048;-74
2022/08/29 03:10:36;;;;;;;8.77;2.10;;;16.80;99.90;;;;;;5049287;28;20696;-74
2022/08/29 03:13:03;;;;;;;10.63;2.53;;;16.80;99.90;;;;;;5016410;28;20037;-74
2022/08/29 03:15:29;;;;;;;10.13;2.38;;;16.70;99.90;;;;;;5030827;28;20041;-75
2022/08/29 03:17:55;;;;;;;8.80;2.17;;;16.30;99.90;;;;;;5027825;28;20045;-75
2022/08/29 03:20:23;;;;;;;10.23;2.40;;;16.70;99.90;;;;;;5012341;28;20047;-74
2022/08/29 03:22:49;;;;;;;10.30;2.70;;;16.70;99.90;;;;;;5050071;28;20044;-75
2022/08/29 03:25:16;;;;;;;10.13;2.47;;;16.70;99.90;;;;;;5031453;28;20549;-74
2022/08/29 03:27:42;;;;;;;10.20;2.60;;;16.70;99.90;;;;;;5029978;28;20450;-74
2022/08/29 03:30:10;;;;;;;11.95;2.40;;;16.70;99.90;;;;;;5047897;28;20116;-74
2022/08/29 03:32:37;;;;;;;10.93;2.63;;;16.70;99.90;;;;;;5034897;28;20044;-74
2022/08/29 03:35:03;;;;;;;10.65;2.60;;;16.40;99.90;;;;;;5024144;28;20491;-75
2022/08/29 03:37:30;;;;;;;9.02;2.30;;;16.70;99.90;;;;;;5012712;28;20568;-75
2022/08/29 03:39:55;;;;;;;9.98;2.22;;;16.70;99.90;;;;;;5029131;28;20064;-74
2022/08/29 03:42:21;;;;;;;8.52;2.33;;;16.70;99.90;;;;;;5014638;28;20044;-74
2022/08/29 03:44:47;;;;;;;9.27;2.50;;;16.70;99.90;;;;;;5017743;28;20049;-74
2022/08/29 03:47:13;;;;;;;9.57;2.50;;;16.70;99.90;;;;;;5047070;28;20052;-74
2022/08/29 03:49:39;;;;;;;9.73;2.55;;;16.70;99.90;;;;;;5047273;28;20142;-74
2022/08/29 03:52:08;;;;;;;10.63;2.72;;;16.70;99.90;;;;;;5027920;28;20044;-75
2022/08/29 03:54:35;;;;;;;11.27;2.50;;;16.70;99.90;;;;;;5045619;28;20509;-74
2022/08/29 03:57:03;;;;;;;11.63;2.70;;;16.70;99.90;;;;;;5018885;28;20064;-74
2022/08/29 03:59:30;;;;;;;13.20;2.70;;;16.70;99.90;;;;;;5046008;28;20048;-73
2022/08/29 04:01:57;;;;;;;10.70;2.30;;;16.60;99.90;;;;;;4994121;28;20122;-75
2022/08/29 04:07:08;;;;;;;11.35;2.50;;;16.60;99.90;;;;;;5017948;28;20090;-75
2022/08/29 04:09:35;;;;;;;12.80;3.00;;;16.60;99.90;;;;;;5045737;28;20036;-74
2022/08/29 04:12:04;;;;;;;11.65;2.47;;;16.60;99.90;;;;;;5041537;28;20029;-75
2022/08/29 04:14:31;;;;;;;10.63;2.70;;;16.50;99.90;;;;;;5038845;28;20044;-75
2022/08/29 04:16:57;;;;;;;9.05;2.83;;;16.60;99.90;;;;;;5050475;28;20503;-75
2022/08/29 04:19:22;;;;;;;11.32;2.70;;;16.50;99.90;;;;;;5025336;28;20087;-74
2022/08/29 04:21:48;;;;;;;11.18;2.60;;;16.50;99.90;;;;;;5041267;28;20036;-75
2022/08/29 04:24:15;;;;;;;11.57;2.63;;;16.50;99.90;;;;;;5045319;28;20053;-73
2022/08/29 04:26:41;;;;;;;10.60;2.90;;;16.50;99.90;;;;;;5047271;28;20047;-73
2022/08/29 04:29:09;;;;;;;8.65;2.38;;;16.50;99.90;;;;;;5040888;28;20037;-74
2022/08/29 04:31:36;;;;;;;11.40;2.42;;;16.50;99.90;;;;;;5045923;28;20503;-75
2022/08/29 04:34:04;;;;;;;8.10;2.22;;;16.50;99.90;;;;;;5048910;28;20079;-74
2022/08/29 04:36:32;;;;;;;11.65;2.55;;;16.50;99.90;;;;;;5017788;28;20036;-75
2022/08/29 04:38:58;;;;;;;9.68;2.45;;;16.50;99.90;;;;;;5011155;28;20530;-74
2022/08/29 04:41:24;;;;;;;10.30;2.75;;;16.50;99.90;;;;;;5029594;28;20128;-75
2022/08/29 04:43:49;;;;;;;12.70;2.75;;;16.50;99.90;;;;;;5048022;28;20510;-74
2022/08/29 04:46:16;;;;;;;9.55;2.70;;;16.50;99.90;;;;;;5058490;28;20116;-74
2022/08/29 04:48:42;;;;;;;10.80;2.72;;;16.50;99.90;;;;;;5046673;28;20055;-74
2022/08/29 04:51:09;;;;;;;11.15;2.80;;;16.50;99.90;;;;;;5026666;28;20045;-74
2022/08/29 04:53:35;;;;;;;10.88;2.78;;;16.50;99.90;;;;;;5029557;28;20048;-75
2022/08/29 04:56:05;;;;;;;9.20;2.50;;;16.20;99.90;;;;;;5029168;28;20035;-74
2022/08/29 04:58:33;;;;;;;8.88;2.60;;;16.50;99.90;;;;;;5047485;28;20407;-73
2022/08/29 05:00:59;;;;;;;8.70;2.40;;;16.50;99.90;;;;;;5032423;28;20580;-75
2022/08/29 05:03:24;;;;;;;10.48;2.65;;;15.20;99.90;;;;;;5045550;28;20037;-74
2022/08/29 05:06:02;;;;;;;10.65;2.88;;;16.50;99.90;;;;;;5030124;28;20048;-75
2022/08/29 05:08:29;;;;;;;8.93;2.33;;;16.50;99.90;;;;;;5022247;28;20130;-74
2022/08/29 05:10:55;;;;;;;11.30;2.70;;;16.50;99.90;;;;;;5047471;28;20041;-74
2022/08/29 05:13:22;;;;;;;11.18;3.20;;;16.50;99.90;;;;;;5047476;28;20509;-74
2022/08/29 05:15:48;;;;;;;11.50;3.00;;;16.60;99.90;;;;;;5045359;28;20032;-74
2022/08/29 05:18:18;;;;;;;9.43;2.70;;;16.60;99.90;;;;;;5046915;28;20368;-74
2022/08/29 05:20:46;;;;;;;12.07;2.70;;;16.70;99.90;;;;;;5032688;28;20048;-74
2022/08/29 05:23:13;;;;;;;9.10;2.33;;;16.70;99.90;;;;;;5027624;28;20120;-75
2022/08/29 05:25:40;;;;;;;8.82;2.40;;;16.70;99.90;;;;;;5007942;28;20610;-74
2022/08/29 05:28:06;;;;;;;10.55;2.60;;;16.80;99.90;;;;;;5017675;28;20041;-75
2022/08/29 05:30:32;;;;;;;8.65;2.20;;;16.80;99.90;;;;;;5046404;28;20086;-74
2022/08/29 05:32:59;;;;;;;11.05;2.40;;;16.80;99.90;;;;;;5025974;28;20041;-74
2022/08/29 05:35:25;;;;;;;9.63;2.45;;;16.80;99.90;;;;;;5017873;28;20086;-74
2022/08/29 05:37:51;;;;;;;9.80;2.58;;;16.10;99.90;;;;;;5052079;28;20025;-74
2022/08/29 05:40:18;;;;;;;9.45;2.60;;;16.90;99.90;;;;;;5024919;28;20522;-75
2022/08/29 05:42:43;;;;;;;13.50;3.05;;;16.90;99.90;;;;;;5018056;28;20056;-75
2022/08/29 05:45:09;;;;;;;12.00;2.67;;;16.90;99.90;;;;;;5031659;28;20057;-74
2022/08/29 05:47:35;;;;;;;11.68;2.95;;;16.90;99.90;;;;;;5031944;28;20152;-74
2022/08/29 05:50:01;;;;;;;10.00;2.50;;;17.00;99.90;;;;;;5047267;28;20087;-75
2022/08/29 05:52:28;;;;;;;9.48;2.53;;;17.00;99.90;;;;;;5039342;28;20049;-75
2022/08/29 05:54:54;;;;;;;9.98;2.85;;;17.00;99.90;;;;;;5045677;28;20510;-74
2022/08/29 05:57:22;;;;;;;10.45;2.97;;;17.00;99.90;;;;;;5050251;28;20036;-75
2022/08/29 05:59:50;;;;;;;10.98;2.90;;;17.00;99.90;;;;;;5033408;28;20040;-75
2022/08/29 06:02:16;;;;;;;11.27;2.75;;;17.00;99.90;;;;;;5031331;28;20039;-73
2022/08/29 06:04:43;;;;;;;14.82;3.35;;;17.10;99.90;;;;;;5033776;28;20032;-74
2022/08/29 06:07:09;;;;;;;12.15;2.67;;;17.10;99.90;;;;;;5028790;28;20048;-74
2022/08/29 06:09:37;;;;;;;10.10;2.70;;;17.20;99.90;;;;;;5031410;28;20146;-75
2022/08/29 06:12:04;;;;;;;11.63;2.33;;;17.20;99.90;;;;;;5012526;28;20116;-75
2022/08/29 06:14:31;;;;;;;16.58;3.00;;;18.00;99.90;;;;;;5064851;28;20523;-74
2022/08/29 06:16:56;;;;;;;12.52;3.05;;;17.30;99.90;;;;;;5014072;28;20048;-75
2022/08/29 06:19:23;;;;;;;10.05;2.78;;;17.40;99.90;;;;;;5030484;28;20036;-74
2022/08/29 06:21:49;;;;;;;11.13;2.60;;;17.40;99.90;;;;;;5029443;28;20051;-75
2022/08/29 06:24:15;;;;;;;9.55;2.90;;;17.50;99.90;;;;;;5014094;28;20372;-75
2022/08/29 06:26:44;;;;;;;11.45;3.20;;;17.40;99.90;;;;;;5012632;28;20037;-74
2022/08/29 06:29:10;;;;;;;13.75;3.10;;;17.50;99.90;;;;;;5047666;28;20041;-74
2022/08/29 06:31:37;;;;;;;10.90;2.90;;;17.50;99.90;;;;;;5041481;28;20045;-74
2022/08/29 06:34:05;;;;;;;9.43;2.83;;;17.60;99.90;;;;;;5050255;28;20086;-75
2022/08/29 06:36:32;;;;;;;10.35;2.83;;;17.80;99.90;;;;;;5038886;28;20048;-75
2022/08/29 06:39:00;;;;;;;13.05;3.20;;;17.80;99.90;;;;;;5026861;28;20387;-75
2022/08/29 06:41:26;;;;;;;10.15;2.70;;;17.90;99.90;;;;;;5029918;28;20041;-75
2022/08/29 06:43:53;;;;;;;10.98;2.83;;;17.90;99.90;;;;;;5049552;28;20049;-75
2022/08/29 06:46:28;;;;;;;10.65;3.08;;;18.00;99.90;;;;;;5033506;28;20061;-74
2022/08/29 06:48:56;;;;;;;14.05;2.95;;;18.10;99.90;;;;;;5026856;28;20049;-74
2022/08/29 06:51:25;;;;;;;15.02;3.55;;;18.10;99.90;;;;;;5048862;28;20044;-76
2022/08/29 06:53:51;;;;;;;13.15;3.40;;;18.10;99.90;;;;;;5047391;28;20037;-74
2022/08/29 06:56:18;;;;;;;11.60;2.85;;;18.10;99.90;;;;;;5031974;28;20091;-75
2022/08/29 06:58:44;;;;;;;11.90;3.22;;;18.20;99.90;;;;;;5045061;28;20067;-74
2022/08/29 07:01:15;;;;;;;13.15;3.30;;;18.20;99.90;;;;;;5014348;28;20130;-75
2022/08/29 07:03:41;;;;;;;13.30;3.60;;;18.30;99.90;;;;;;5030450;28;20040;-75
2022/08/29 07:06:08;;;;;;;15.75;3.53;;;18.40;99.90;;;;;;5050559;28;20037;-75
2022/08/29 07:08:35;;;;;;;10.50;3.22;;;18.40;99.90;;;;;;5043391;28;20036;-76
2022/08/29 07:11:01;;;;;;;14.40;3.20;;;18.50;99.90;;;;;;5029966;28;20412;-75
2022/08/29 07:13:27;;;;;;;10.13;2.58;;;18.50;99.90;;;;;;5057719;28;20156;-75
2022/08/29 07:15:52;;;;;;;14.13;3.60;;;18.60;99.90;;;;;;5011728;28;20604;-76
2022/08/29 07:18:19;;;;;;;11.10;3.45;;;18.60;99.90;;;;;;5050575;28;20039;-74
2022/08/29 07:20:45;;;;;;;11.05;3.38;;;18.70;99.90;;;;;;5031752;28;20098;-75
2022/08/29 07:23:11;;;;;;;12.68;3.10;;;18.70;99.90;;;;;;5032177;28;20049;-75
2022/08/29 07:25:37;;;;;;;13.40;3.85;;;18.80;99.90;;;;;;5015222;28;20041;-75
2022/08/29 07:28:04;;;;;;;11.48;3.25;;;18.80;99.90;;;;;;5015652;28;20073;-74
2022/08/29 07:30:30;;;;;;;11.60;3.25;;;18.90;99.90;;;;;;5027081;28;20045;-74
2022/08/29 07:32:56;;;;;;;13.60;3.60;;;18.90;99.90;;;;;;5020573;28;20083;-74
2022/08/29 07:35:24;;;;;;;12.88;3.15;;;19.00;99.90;;;;;;5034054;28;20069;-74
2022/08/29 07:37:50;;;;;;;10.07;3.05;;;19.00;99.90;;;;;;5013829;28;20041;-76
2022/08/29 07:40:16;;;;;;;14.40;3.65;;;19.10;99.90;;;;;;5027646;28;20083;-74
2022/08/29 07:42:43;;;;;;;10.98;3.20;;;19.10;99.90;;;;;;5029070;28;20068;-74
2022/08/29 07:45:10;;;;;;;13.77;3.70;;;19.10;99.90;;;;;;5045860;28;20056;-75
2022/08/29 07:47:36;;;;;;;11.70;3.55;;;19.20;99.90;;;;;;5042136;28;20043;-74
2022/08/29 07:50:05;;;;;;;12.55;3.47;;;19.20;99.90;;;;;;5006187;28;20044;-75
2022/08/29 07:52:33;;;;;;;13.18;3.35;;;19.10;99.90;;;;;;5043701;28;20052;-76
2022/08/29 07:55:00;;;;;;;13.48;3.35;;;19.20;99.90;;;;;;5046289;28;20052;-75
2022/08/29 07:57:25;;;;;;;14.57;3.65;;;19.30;99.90;;;;;;5049334;28;20040;-76
2022/08/29 07:59:54;;;;;;;10.88;3.25;;;19.30;99.90;;;;;;4995816;28;20029;-75
2022/08/29 08:02:29;;;;;;;15.65;3.92;;;19.40;99.90;;;;;;5042393;28;20146;-76
2022/08/29 08:04:55;;;;;;;11.77;3.55;;;19.50;99.90;;;;;;5012761;28;20290;-73
2022/08/29 08:07:23;;;;;;;11.80;3.30;;;19.60;99.90;;;;;;5050356;28;20251;-73
2022/08/29 08:09:49;;;;;;;14.18;4.20;;;19.70;99.90;;;;;;5028345;28;20040;-75
2022/08/29 08:12:14;;;;;;;11.30;3.05;;;19.80;99.90;;;;;;5048046;28;20048;-73
2022/08/29 08:14:40;;;;;;;13.70;3.47;;;19.70;99.90;;;;;;5044649;28;20411;-77
2022/08/29 08:17:10;;;;;;;11.43;3.65;;;19.70;99.90;;;;;;5027711;28;20033;-75
2022/08/29 08:19:37;;;;;;;11.35;3.10;;;19.70;99.90;;;;;;5012216;28;20487;-74
2022/08/29 08:22:02;;;;;;;11.43;3.30;;;19.80;99.90;;;;;;5072344;28;20040;-75
2022/08/29 08:24:28;;;;;;;15.45;4.40;;;19.80;99.90;;;;;;5001580;28;20037;-73
2022/08/29 08:26:54;;;;;;;14.45;3.50;;;19.80;99.90;;;;;;4992719;28;20079;-73
2022/08/29 08:29:20;;;;;;;12.65;3.65;;;19.80;99.90;;;;;;5025723;28;20032;-77
2022/08/29 08:31:48;;;;;;;20.48;4.40;;;19.70;99.90;;;;;;5058524;28;20041;-76
2022/08/29 08:34:15;;;;;;;14.55;3.40;;;19.70;99.90;;;;;;5027182;28;20079;-75
2022/08/29 08:36:43;;;;;;;14.70;3.42;;;19.70;99.90;;;;;;5011006;28;20040;-75
2022/08/29 08:39:10;;;;;;;13.95;3.40;;;19.80;99.90;;;;;;5042062;28;20150;-74
2022/08/29 08:41:51;;;;;;;11.75;3.75;;;19.80;99.90;;;;;;5045369;28;20408;-76
2022/08/29 08:44:25;;;;;;;16.00;3.60;;;19.80;99.90;;;;;;5043513;28;20418;-75
2022/08/29 08:46:58;;;;;;;12.30;3.65;;;19.80;99.90;;;;;;5045608;28;20136;-74
2022/08/29 08:50:11;;;;;;;15.27;4.05;;;19.80;99.90;;;;;;5025008;28;20543;-73
2022/08/29 08:52:41;;;;;;;12.90;3.63;;;19.90;99.90;;;;;;4996044;28;20084;-76
2022/08/29 08:55:36;;;;;;;14.52;3.40;;;19.80;99.90;;;;;;5001848;28;20124;-75
2022/08/29 08:58:27;;;;;;;12.13;3.47;;;19.60;99.90;;;;;;5026595;28;20495;-75
2022/08/29 09:01:20;;;;;;;13.38;3.70;;;19.60;99.90;;;;;;5014949;28;20072;-75
2022/08/29 09:04:27;;;;;;;15.30;3.80;;;19.30;99.90;;;;;;5047298;28;20051;-76
2022/08/29 09:07:30;;;;;;;13.00;3.30;;;19.50;99.90;;;;;;5038678;28;20127;-75
2022/08/29 09:10:08;;;;;;;13.60;3.65;;;19.50;99.90;;;;;;5030588;28;20047;-74
2022/08/29 09:12:53;;;;;;;10.98;3.72;;;19.40;99.90;;;;;;5054549;28;20114;-80
2022/08/29 09:15:23;;;;;;;13.57;3.40;;;19.40;99.90;;;;;;5043803;28;20479;-79
2022/08/29 09:18:06;;;;;;;12.43;3.85;;;19.40;99.90;;;;;;5044501;28;20087;-75
2022/08/29 09:20:37;;;;;;;15.90;3.95;;;19.50;99.90;;;;;;5045885;28;20051;-76
2022/08/29 09:23:20;;;;;;;12.40;3.20;;;19.60;99.90;;;;;;5047411;28;20447;-74
2022/08/29 09:25:46;;;;;;;15.07;3.70;;;19.60;99.90;;;;;;5028539;28;20040;-74
2022/08/29 09:28:12;;;;;;;14.00;3.95;;;19.70;99.90;;;;;;5047396;28;20041;-76
2022/08/29 09:31:04;;;;;;;12.77;4.10;;;19.70;99.90;;;;;;5012288;28;20053;-75
2022/08/29 09:33:41;;;;;;;13.38;3.55;;;19.80;99.90;;;;;;5028923;28;20041;-75
2022/08/29 09:36:12;;;;;;;11.88;3.60;;;19.90;99.90;;;;;;5024859;28;20112;-76
2022/08/29 09:38:38;;;;;;;13.90;3.55;;;20.00;99.90;;;;;;5045192;28;20506;-76
2022/08/29 09:41:07;;;;;;;12.88;3.85;;;20.10;99.90;;;;;;4987274;28;20127;-75
2022/08/29 09:43:48;;;;;;;11.73;3.60;;;20.20;99.90;;;;;;5003292;28;20113;-76
2022/08/29 09:46:23;;;;;;;13.48;3.63;;;20.30;99.90;;;;;;5029203;28;20107;-77
2022/08/29 09:48:52;;;;;;;14.43;3.35;;;20.30;99.90;;;;;;5014772;28;20496;-75
2022/08/29 09:51:27;;;;;;;13.18;3.80;;;20.30;99.90;;;;;;5047940;28;20086;-76
2022/08/29 09:54:13;;;;;;;11.85;3.60;;;20.30;99.90;;;;;;5018820;28;20044;-75
2022/08/29 09:57:05;;;;;;;15.63;3.70;;;20.20;99.90;;;;;;5011956;28;20037;-76
2022/08/29 09:59:35;;;;;;;15.55;3.92;;;20.20;99.90;;;;;;5017362;28;20450;-75
2022/08/29 10:02:45;;;;;;;11.85;3.65;;;20.20;99.90;;;;;;5047786;28;20045;-75
2022/08/29 10:05:40;;;;;;;11.23;3.50;;;20.20;99.90;;;;;;5035643;28;20067;-76
2022/08/29 10:08:30;;;;;;;13.10;3.67;;;20.10;99.90;;;;;;5030900;28;20142;-75
2022/08/29 10:11:03;;;;;;;12.20;3.78;;;20.20;99.90;;;;;;5031138;28;20178;-75
2022/08/29 10:13:39;;;;;;;11.30;3.33;;;20.20;99.90;;;;;;5046612;28;20037;-75
2022/08/29 10:16:24;;;;;;;16.17;3.78;;;20.20;99.90;;;;;;5015268;28;20069;-75
2022/08/29 10:18:56;;;;;;;12.05;3.90;;;20.20;99.90;;;;;;5044181;28;20499;-76
2022/08/29 10:21:37;;;;;;;13.80;3.70;;;20.20;99.90;;;;;;5018068;28;20476;-77
2022/08/29 10:24:27;;;;;;;14.52;3.63;;;20.30;99.90;;;;;;5029504;28;20041;-77
2022/08/29 10:27:03;;;;;;;12.25;3.63;;;20.20;99.90;;;;;;5010132;28;20045;-78
2022/08/29 10:29:38;;;;;;;12.82;3.50;;;20.30;99.90;;;;;;5029696;28;20110;-78
2022/08/29 10:32:32;;;;;;;12.18;3.35;;;20.30;99.90;;;;;;5031067;28;20049;-77
2022/08/29 10:35:17;;;;;;;14.45;4.25;;;20.30;99.90;;;;;;5012456;28;20067;-77
2022/08/29 10:37:49;;;;;;;13.00;3.67;;;20.30;99.90;;;;;;5049390;28;20417;-78
2022/08/29 10:40:47;;;;;;;13.30;3.27;;;20.30;99.90;;;;;;5047890;28;20399;-78
2022/08/29 10:43:13;;;;;;;15.13;3.58;;;20.30;99.90;;;;;;5014571;28;20136;-76
2022/08/29 10:45:58;;;;;;;12.85;3.45;;;20.30;99.90;;;;;;5014890;28;20583;-75
2022/08/29 10:48:32;;;;;;;12.20;3.10;;;20.30;99.90;;;;;;5050738;28;20367;-74
2022/08/29 10:51:22;;;;;;;13.93;3.42;;;20.30;99.90;;;;;;5051799;28;20049;-74
2022/08/29 10:53:57;;;;;;;13.95;3.60;;;20.50;99.90;;;;;;5029342;28;20037;-74
2022/08/29 10:56:42;;;;;;;12.85;3.13;;;20.50;99.90;;;;;;5031856;28;20033;-75
2022/08/29 10:59:35;;;;;;;12.77;3.20;;;20.60;99.90;;;;;;5016716;28;20709;-76
2022/08/29 11:02:13;;;;;;;11.50;2.90;;;20.70;99.90;;;;;;5049894;28;20049;-74
2022/08/29 11:04:50;;;;;;;12.63;2.92;;;20.70;99.90;;;;;;5029333;28;20045;-74
2022/08/29 11:07:31;;;;;;;12.70;2.88;;;20.70;99.90;;;;;;5029562;28;20211;-74
2022/08/29 11:10:14;;;;;;;10.02;2.92;;;20.70;99.90;;;;;;5060054;28;20037;-74
2022/08/29 11:13:20;;;;;;;11.38;2.70;;;20.70;99.90;;;;;;5046537;28;20045;-75
2022/08/29 11:16:17;;;;;;;9.93;3.38;;;20.70;99.90;;;;;;5031706;28;20451;-75
2022/08/29 11:18:56;;;;;;;10.18;2.42;;;20.70;99.90;;;;;;5059911;28;20033;-74
2022/08/29 11:21:53;;;;;;;11.68;3.13;;;20.80;99.90;;;;;;5043457;28;20099;-74
2022/08/29 11:24:19;;;;;;;10.15;3.00;;;20.90;99.90;;;;;;5029127;28;20119;-74
2022/08/29 11:26:57;;;;;;;12.07;2.63;;;20.90;99.90;;;;;;5013795;28;20064;-74
2022/08/29 11:29:40;;;;;;;10.65;3.08;;;20.90;99.90;;;;;;5015446;28;20041;-74
2022/08/29 11:32:34;;;;;;;13.05;3.10;;;21.30;99.90;;;;;;5020260;28;20041;-76
2022/08/29 11:35:10;;;;;;;11.60;2.80;;;21.30;99.90;;;;;;5023185;28;20491;-73
2022/08/29 11:38:14;;;;;;;11.65;3.03;;;21.60;99.90;;;;;;5012978;28;20102;-75
2022/08/29 11:41:00;;;;;;;17.60;3.15;;;21.80;99.90;;;;;;5032765;28;20407;-74
2022/08/29 11:43:34;;;;;;;9.85;2.50;;;21.90;99.90;;;;;;5015837;28;20044;-75
2022/08/29 11:46:02;;;;;;;10.63;2.85;;;22.00;99.90;;;;;;5032385;28;20045;-74
2022/08/29 11:48:38;;;;;;;10.75;2.75;;;22.10;99.90;;;;;;5032694;28;20045;-74
2022/08/29 11:51:33;;;;;;;9.60;2.40;;;22.20;99.90;;;;;;5031606;28;20059;-74
2022/08/29 11:54:38;;;;;;;9.77;2.60;;;22.20;99.90;;;;;;5032399;28;20455;-75
2022/08/29 11:57:04;;;;;;;7.95;2.40;;;22.30;99.90;;;;;;5014122;28;20049;-74
2022/08/29 11:59:58;;;;;;;8.00;2.47;;;22.20;99.90;;;;;;5016161;28;20043;-74
2022/08/29 12:02:26;;;;;;;9.73;2.47;;;22.10;99.90;;;;;;5031355;28;20052;-73
2022/08/29 12:04:58;;;;;;;8.82;2.50;;;22.00;99.90;;;;;;5015099;28;20090;-74
2022/08/29 12:07:48;;;;;;;8.23;2.40;;;21.90;99.90;;;;;;5015667;28;20043;-75
2022/08/29 12:10:22;;;;;;;8.43;2.55;;;21.80;99.90;;;;;;5032319;28;20037;-74
2022/08/29 12:12:57;;;;;;;10.52;2.72;;;22.20;99.90;;;;;;5042598;28;20043;-73
2022/08/29 12:15:28;;;;;;;8.32;2.70;;;22.10;99.90;;;;;;5049038;28;20040;-75
2022/08/29 12:18:12;;;;;;;7.53;2.40;;;22.20;99.90;;;;;;5049940;28;20466;-75
2022/08/29 12:20:57;;;;;;;9.73;2.60;;;22.30;99.90;;;;;;5016011;28;20541;-74
2022/08/29 12:23:38;;;;;;;8.52;2.40;;;22.30;99.90;;;;;;5015098;28;20040;-75
2022/08/29 12:26:25;;;;;;;10.43;2.70;;;22.20;99.90;;;;;;5014772;28;20041;-75
2022/08/29 12:29:01;;;;;;;14.23;2.67;;;22.10;99.90;;;;;;5015209;28;20051;-75
2022/08/29 12:31:39;;;;;;;8.93;2.20;;;22.00;99.90;;;;;;5014771;28;20072;-75
2022/08/29 12:34:20;;;;;;;9.20;2.30;;;21.90;99.90;;;;;;5031253;28;20041;-73
2022/08/29 12:37:04;;;;;;;9.13;2.40;;;22.20;99.90;;;;;;5048743;28;20036;-74
2022/08/29 12:39:48;;;;;;;10.10;2.13;;;22.50;99.90;;;;;;5015812;28;20140;-73
2022/08/29 12:42:48;;;;;;;6.65;2.13;;;22.60;99.90;;;;;;5014892;28;20124;-75
2022/08/29 12:45:22;;;;;;;8.57;2.40;;;22.60;99.90;;;;;;5031099;28;20067;-76
2022/08/29 12:47:57;;;;;;;8.55;2.30;;;22.50;99.90;;;;;;5035133;28;20503;-75
2022/08/29 12:50:42;;;;;;;9.85;2.50;;;22.40;99.90;;;;;;5030396;28;20403;-74
2022/08/29 12:53:14;;;;;;;11.90;2.72;;;22.20;99.90;;;;;;5048327;28;20048;-73
2022/08/29 12:55:46;;;;;;;10.43;2.53;;;22.10;99.90;;;;;;5050590;28;20056;-74
2022/08/29 12:58:14;;;;;;;8.05;2.58;;;22.10;99.90;;;;;;5047552;28;20033;-75
2022/08/29 13:00:40;;;;;;;7.75;2.53;;;22.00;99.90;;;;;;5052055;28;20040;-74
2022/08/29 13:03:16;;;;;;;7.10;2.20;;;21.90;99.90;;;;;;5051278;28;20509;-75
2022/08/29 13:05:42;;;;;;;9.95;2.45;;;22.10;99.90;;;;;;5047854;28;20037;-73
2022/08/29 13:08:39;;;;;;;8.52;2.17;;;22.10;99.90;;;;;;5018181;28;20040;-74
2022/08/29 13:11:08;;;;;;;8.95;2.50;;;22.10;99.90;;;;;;5026258;28;20098;-74